sensor_id;sensor_type;location;lat;lon;timestamp;P1;durP1;ratioP1;P2;durP2;ratioP2
22201;SDS011;11266;51.522;6.302;2022-12-08T00:10:32;8.30;;;3.55;;
22201;SDS011;11266;51.522;6.302;2022-12-08T00:11:18;7.75;;;3.17;;
22201;SDS011;11266;51.522;6.302;2022-12-08T00:12:06;5.70;;;3.45;;
22201;SDS011;11266;51.522;6.302;2022-12-08T00:12:52;5.10;;;3.20;;
22201;SDS011;11266;51.522;6.302;2022-12-08T00:13:38;5.50;;;3.30;;
22201;SDS011;11266;51.522;6.302;2022-12-08T00:15:13;6.50;;;3.47;;
22201;SDS011;11266;51.522;6.302;2022-12-08T00:15:59;6.13;;;3.85;;
22201;SDS011;11266;51.522;6.302;2022-12-08T00:16:45;6.18;;;4.40;;
22201;SDS011;11266;51.522;6.302;2022-12-08T00:17:31;6.05;;;3.85;;
22201;SDS011;11266;51.522;6.302;2022-12-08T00:18:17;6.80;;;3.78;;
22201;SDS011;11266;51.522;6.302;2022-12-08T00:19:03;6.00;;;4.18;;
22201;SDS011;11266;51.522;6.302;2022-12-08T00:19:49;9.10;;;4.32;;
22201;SDS011;11266;51.522;6.302;2022-12-08T00:20:35;5.10;;;3.65;;
22201;SDS011;11266;51.522;6.302;2022-12-08T00:21:21;5.40;;;4.13;;
22201;SDS011;11266;51.522;6.302;2022-12-08T00:22:08;6.78;;;4.13;;
22201;SDS011;11266;51.522;6.302;2022-12-08T00:22:54;7.03;;;4.60;;
22201;SDS011;11266;51.522;6.302;2022-12-08T00:23:40;6.20;;;4.53;;
22201;SDS011;11266;51.522;6.302;2022-12-08T00:24:29;8.40;;;4.88;;
22201;SDS011;11266;51.522;6.302;2022-12-08T00:25:15;10.57;;;4.95;;
22201;SDS011;11266;51.522;6.302;2022-12-08T00:26:02;6.95;;;4.50;;
22201;SDS011;11266;51.522;6.302;2022-12-08T00:26:49;8.10;;;4.78;;
22201;SDS011;11266;51.522;6.302;2022-12-08T00:27:35;8.20;;;4.78;;
22201;SDS011;11266;51.522;6.302;2022-12-08T00:28:21;10.77;;;5.00;;
22201;SDS011;11266;51.522;6.302;2022-12-08T00:29:07;7.93;;;5.13;;
22201;SDS011;11266;51.522;6.302;2022-12-08T00:29:53;8.45;;;5.05;;
22201;SDS011;11266;51.522;6.302;2022-12-08T00:30:39;9.00;;;6.13;;
22201;SDS011;11266;51.522;6.302;2022-12-08T00:31:25;10.07;;;6.38;;
22201;SDS011;11266;51.522;6.302;2022-12-08T00:32:12;9.48;;;6.90;;
22201;SDS011;11266;51.522;6.302;2022-12-08T00:32:58;8.60;;;6.15;;
22201;SDS011;11266;51.522;6.302;2022-12-08T00:33:44;10.95;;;6.80;;
22201;SDS011;11266;51.522;6.302;2022-12-08T00:34:30;10.40;;;7.03;;
22201;SDS011;11266;51.522;6.302;2022-12-08T00:35:16;10.10;;;6.78;;
22201;SDS011;11266;51.522;6.302;2022-12-08T00:36:09;8.27;;;5.70;;
22201;SDS011;11266;51.522;6.302;2022-12-08T00:36:56;14.25;;;7.90;;
22201;SDS011;11266;51.522;6.302;2022-12-08T00:37:44;10.23;;;6.72;;
22201;SDS011;11266;51.522;6.302;2022-12-08T00:38:30;11.02;;;7.28;;
22201;SDS011;11266;51.522;6.302;2022-12-08T00:39:16;9.55;;;6.72;;
22201;SDS011;11266;51.522;6.302;2022-12-08T00:40:03;12.27;;;7.80;;
22201;SDS011;11266;51.522;6.302;2022-12-08T00:40:49;11.88;;;8.38;;
22201;SDS011;11266;51.522;6.302;2022-12-08T00:41:35;14.50;;;8.88;;
22201;SDS011;11266;51.522;6.302;2022-12-08T00:42:39;14.20;;;8.45;;
22201;SDS011;11266;51.522;6.302;2022-12-08T00:43:25;11.30;;;8.23;;
22201;SDS011;11266;51.522;6.302;2022-12-08T00:44:13;12.20;;;8.68;;
22201;SDS011;11266;51.522;6.302;2022-12-08T00:44:59;11.90;;;8.45;;
22201;SDS011;11266;51.522;6.302;2022-12-08T00:45:46;10.10;;;7.75;;
22201;SDS011;11266;51.522;6.302;2022-12-08T00:46:31;11.30;;;7.70;;
22201;SDS011;11266;51.522;6.302;2022-12-08T00:47:17;15.27;;;10.43;;
22201;SDS011;11266;51.522;6.302;2022-12-08T00:48:04;11.45;;;7.78;;
22201;SDS011;11266;51.522;6.302;2022-12-08T00:48:50;11.18;;;7.68;;
22201;SDS011;11266;51.522;6.302;2022-12-08T00:49:36;12.93;;;8.60;;
22201;SDS011;11266;51.522;6.302;2022-12-08T00:50:22;12.88;;;9.45;;
22201;SDS011;11266;51.522;6.302;2022-12-08T00:51:08;13.50;;;10.27;;
22201;SDS011;11266;51.522;6.302;2022-12-08T00:51:54;14.10;;;10.43;;
22201;SDS011;11266;51.522;6.302;2022-12-08T00:52:40;12.07;;;9.02;;
22201;SDS011;11266;51.522;6.302;2022-12-08T00:53:26;12.13;;;9.27;;
22201;SDS011;11266;51.522;6.302;2022-12-08T00:54:12;12.77;;;10.60;;
22201;SDS011;11266;51.522;6.302;2022-12-08T00:54:59;16.80;;;11.13;;
22201;SDS011;11266;51.522;6.302;2022-12-08T00:55:45;12.38;;;9.75;;
22201;SDS011;11266;51.522;6.302;2022-12-08T00:56:31;11.57;;;9.35;;
22201;SDS011;11266;51.522;6.302;2022-12-08T00:57:17;10.02;;;7.72;;
22201;SDS011;11266;51.522;6.302;2022-12-08T00:58:03;11.73;;;9.77;;
22201;SDS011;11266;51.522;6.302;2022-12-08T00:58:49;15.45;;;10.18;;
22201;SDS011;11266;51.522;6.302;2022-12-08T00:59:38;13.55;;;9.65;;
22201;SDS011;11266;51.522;6.302;2022-12-08T01:00:24;13.40;;;10.13;;
22201;SDS011;11266;51.522;6.302;2022-12-08T01:01:10;13.10;;;10.02;;
22201;SDS011;11266;51.522;6.302;2022-12-08T01:01:57;13.88;;;10.30;;
22201;SDS011;11266;51.522;6.302;2022-12-08T01:02:43;14.95;;;10.70;;
22201;SDS011;11266;51.522;6.302;2022-12-08T01:03:29;13.32;;;10.77;;
22201;SDS011;11266;51.522;6.302;2022-12-08T01:04:15;18.92;;;11.88;;
22201;SDS011;11266;51.522;6.302;2022-12-08T01:05:02;15.18;;;11.25;;
22201;SDS011;11266;51.522;6.302;2022-12-08T01:05:48;14.10;;;10.55;;
22201;SDS011;11266;51.522;6.302;2022-12-08T01:06:34;17.35;;;11.52;;
22201;SDS011;11266;51.522;6.302;2022-12-08T01:07:20;15.15;;;11.20;;
22201;SDS011;11266;51.522;6.302;2022-12-08T01:08:07;13.10;;;10.27;;
22201;SDS011;11266;51.522;6.302;2022-12-08T01:08:53;15.13;;;12.13;;
22201;SDS011;11266;51.522;6.302;2022-12-08T01:09:39;16.00;;;11.52;;
22201;SDS011;11266;51.522;6.302;2022-12-08T01:10:25;15.18;;;11.50;;
22201;SDS011;11266;51.522;6.302;2022-12-08T01:11:15;20.23;;;12.93;;
22201;SDS011;11266;51.522;6.302;2022-12-08T01:12:02;16.95;;;12.35;;
22201;SDS011;11266;51.522;6.302;2022-12-08T01:12:51;17.55;;;12.73;;
22201;SDS011;11266;51.522;6.302;2022-12-08T01:13:37;17.10;;;12.90;;
22201;SDS011;11266;51.522;6.302;2022-12-08T01:14:23;19.88;;;12.32;;
22201;SDS011;11266;51.522;6.302;2022-12-08T01:15:09;18.33;;;12.88;;
22201;SDS011;11266;51.522;6.302;2022-12-08T01:15:55;15.23;;;12.35;;
22201;SDS011;11266;51.522;6.302;2022-12-08T01:16:41;15.43;;;11.45;;
22201;SDS011;11266;51.522;6.302;2022-12-08T01:17:27;16.73;;;12.50;;
22201;SDS011;11266;51.522;6.302;2022-12-08T01:18:14;22.95;;;13.45;;
22201;SDS011;11266;51.522;6.302;2022-12-08T01:19:00;18.50;;;13.30;;
22201;SDS011;11266;51.522;6.302;2022-12-08T01:19:46;18.13;;;13.35;;
22201;SDS011;11266;51.522;6.302;2022-12-08T01:20:32;18.90;;;14.55;;
22201;SDS011;11266;51.522;6.302;2022-12-08T01:21:18;16.40;;;12.63;;
22201;SDS011;11266;51.522;6.302;2022-12-08T01:22:04;18.90;;;13.88;;
22201;SDS011;11266;51.522;6.302;2022-12-08T01:22:50;21.98;;;14.85;;
22201;SDS011;11266;51.522;6.302;2022-12-08T01:23:36;19.60;;;14.68;;
22201;SDS011;11266;51.522;6.302;2022-12-08T01:24:22;16.75;;;12.85;;
22201;SDS011;11266;51.522;6.302;2022-12-08T01:25:09;21.65;;;14.45;;
22201;SDS011;11266;51.522;6.302;2022-12-08T01:26:04;21.50;;;14.85;;
22201;SDS011;11266;51.522;6.302;2022-12-08T01:26:52;18.98;;;14.23;;
22201;SDS011;11266;51.522;6.302;2022-12-08T01:27:38;21.50;;;15.30;;
22201;SDS011;11266;51.522;6.302;2022-12-08T01:28:24;21.73;;;14.85;;
22201;SDS011;11266;51.522;6.302;2022-12-08T01:29:11;17.73;;;14.43;;
22201;SDS011;11266;51.522;6.302;2022-12-08T01:29:57;17.20;;;13.10;;
22201;SDS011;11266;51.522;6.302;2022-12-08T01:30:43;19.00;;;14.18;;
22201;SDS011;11266;51.522;6.302;2022-12-08T01:31:29;20.17;;;15.27;;
22201;SDS011;11266;51.522;6.302;2022-12-08T01:32:15;17.15;;;14.00;;
22201;SDS011;11266;51.522;6.302;2022-12-08T01:33:01;18.95;;;13.77;;
22201;SDS011;11266;51.522;6.302;2022-12-08T01:33:48;17.83;;;13.32;;
22201;SDS011;11266;51.522;6.302;2022-12-08T01:34:34;18.85;;;14.50;;
22201;SDS011;11266;51.522;6.302;2022-12-08T01:35:20;21.88;;;15.05;;
22201;SDS011;11266;51.522;6.302;2022-12-08T01:36:06;19.70;;;15.20;;
22201;SDS011;11266;51.522;6.302;2022-12-08T01:36:52;20.08;;;15.25;;
22201;SDS011;11266;51.522;6.302;2022-12-08T01:37:38;21.27;;;15.30;;
22201;SDS011;11266;51.522;6.302;2022-12-08T01:38:24;21.10;;;15.38;;
22201;SDS011;11266;51.522;6.302;2022-12-08T01:39:14;21.60;;;15.93;;
22201;SDS011;11266;51.522;6.302;2022-12-08T01:40:03;20.40;;;15.43;;
22201;SDS011;11266;51.522;6.302;2022-12-08T01:40:49;20.67;;;15.38;;
22201;SDS011;11266;51.522;6.302;2022-12-08T01:41:36;18.92;;;14.77;;
22201;SDS011;11266;51.522;6.302;2022-12-08T01:42:23;20.10;;;15.40;;
22201;SDS011;11266;51.522;6.302;2022-12-08T01:43:12;18.17;;;14.68;;
22201;SDS011;11266;51.522;6.302;2022-12-08T01:44:01;21.85;;;15.63;;
22201;SDS011;11266;51.522;6.302;2022-12-08T01:44:49;18.90;;;14.25;;
22201;SDS011;11266;51.522;6.302;2022-12-08T01:45:36;18.55;;;14.60;;
22201;SDS011;11266;51.522;6.302;2022-12-08T01:46:23;21.58;;;15.20;;
22201;SDS011;11266;51.522;6.302;2022-12-08T01:47:09;23.50;;;16.65;;
22201;SDS011;11266;51.522;6.302;2022-12-08T01:47:57;19.48;;;14.90;;
22201;SDS011;11266;51.522;6.302;2022-12-08T01:48:44;21.27;;;16.05;;
22201;SDS011;11266;51.522;6.302;2022-12-08T01:49:31;19.80;;;15.35;;
22201;SDS011;11266;51.522;6.302;2022-12-08T01:50:18;22.27;;;16.30;;
22201;SDS011;11266;51.522;6.302;2022-12-08T01:51:04;20.73;;;15.25;;
22201;SDS011;11266;51.522;6.302;2022-12-08T01:51:58;21.27;;;16.00;;
22201;SDS011;11266;51.522;6.302;2022-12-08T01:52:47;21.90;;;15.52;;
22201;SDS011;11266;51.522;6.302;2022-12-08T01:53:36;18.25;;;14.50;;
22201;SDS011;11266;51.522;6.302;2022-12-08T01:54:23;21.42;;;15.30;;
22201;SDS011;11266;51.522;6.302;2022-12-08T01:56:09;22.00;;;17.42;;
22201;SDS011;11266;51.522;6.302;2022-12-08T01:56:57;20.40;;;16.50;;
22201;SDS011;11266;51.522;6.302;2022-12-08T01:57:50;22.15;;;16.58;;
22201;SDS011;11266;51.522;6.302;2022-12-08T01:58:39;20.45;;;14.60;;
22201;SDS011;11266;51.522;6.302;2022-12-08T01:59:26;22.70;;;16.35;;
22201;SDS011;11266;51.522;6.302;2022-12-08T02:00:14;21.55;;;17.15;;
22201;SDS011;11266;51.522;6.302;2022-12-08T02:01:01;21.65;;;16.33;;
22201;SDS011;11266;51.522;6.302;2022-12-08T02:01:47;23.10;;;17.73;;
22201;SDS011;11266;51.522;6.302;2022-12-08T02:02:43;20.65;;;16.17;;
22201;SDS011;11266;51.522;6.302;2022-12-08T02:03:41;21.48;;;16.98;;
22201;SDS011;11266;51.522;6.302;2022-12-08T02:04:27;24.67;;;17.60;;
22201;SDS011;11266;51.522;6.302;2022-12-08T02:05:13;24.98;;;18.45;;
22201;SDS011;11266;51.522;6.302;2022-12-08T02:06:01;22.25;;;16.80;;
22201;SDS011;11266;51.522;6.302;2022-12-08T02:06:47;21.67;;;17.02;;
22201;SDS011;11266;51.522;6.302;2022-12-08T02:07:34;21.35;;;16.95;;
22201;SDS011;11266;51.522;6.302;2022-12-08T02:08:20;24.73;;;17.45;;
22201;SDS011;11266;51.522;6.302;2022-12-08T02:09:06;23.30;;;17.70;;
22201;SDS011;11266;51.522;6.302;2022-12-08T02:09:52;24.70;;;17.38;;
22201;SDS011;11266;51.522;6.302;2022-12-08T02:10:40;21.73;;;15.93;;
22201;SDS011;11266;51.522;6.302;2022-12-08T02:11:26;22.52;;;18.30;;
22201;SDS011;11266;51.522;6.302;2022-12-08T02:12:12;23.05;;;18.00;;
22201;SDS011;11266;51.522;6.302;2022-12-08T02:12:58;24.70;;;18.55;;
22201;SDS011;11266;51.522;6.302;2022-12-08T02:13:45;24.48;;;18.48;;
22201;SDS011;11266;51.522;6.302;2022-12-08T02:14:32;23.38;;;18.42;;
22201;SDS011;11266;51.522;6.302;2022-12-08T02:15:19;25.27;;;19.00;;
22201;SDS011;11266;51.522;6.302;2022-12-08T02:17:18;27.60;;;20.00;;
22201;SDS011;11266;51.522;6.302;2022-12-08T02:22:12;24.08;;;16.45;;
22201;SDS011;11266;51.522;6.302;2022-12-08T02:23:05;30.70;;;19.75;;
22201;SDS011;11266;51.522;6.302;2022-12-08T02:24:15;25.20;;;18.23;;
22201;SDS011;11266;51.522;6.302;2022-12-08T02:25:15;22.75;;;18.17;;
22201;SDS011;11266;51.522;6.302;2022-12-08T02:28:48;24.48;;;18.33;;
22201;SDS011;11266;51.522;6.302;2022-12-08T02:34:48;26.85;;;19.33;;
22201;SDS011;11266;51.522;6.302;2022-12-08T02:37:48;25.70;;;19.40;;
22201;SDS011;11266;51.522;6.302;2022-12-08T02:39:51;28.35;;;20.25;;
22201;SDS011;11266;51.522;6.302;2022-12-08T02:41:51;24.17;;;18.92;;
22201;SDS011;11266;51.522;6.302;2022-12-08T02:42:42;27.85;;;19.73;;
22201;SDS011;11266;51.522;6.302;2022-12-08T02:43:42;24.55;;;18.40;;
22201;SDS011;11266;51.522;6.302;2022-12-08T02:44:34;25.58;;;19.80;;
22201;SDS011;11266;51.522;6.302;2022-12-08T02:45:25;25.02;;;19.38;;
22201;SDS011;11266;51.522;6.302;2022-12-08T02:46:20;24.38;;;19.48;;
22201;SDS011;11266;51.522;6.302;2022-12-08T02:47:12;26.67;;;20.27;;
22201;SDS011;11266;51.522;6.302;2022-12-08T02:47:58;27.27;;;19.90;;
22201;SDS011;11266;51.522;6.302;2022-12-08T02:48:45;26.17;;;19.85;;
22201;SDS011;11266;51.522;6.302;2022-12-08T02:49:32;24.75;;;19.77;;
22201;SDS011;11266;51.522;6.302;2022-12-08T02:50:19;24.25;;;19.70;;
22201;SDS011;11266;51.522;6.302;2022-12-08T02:51:05;25.48;;;19.95;;
22201;SDS011;11266;51.522;6.302;2022-12-08T02:52:02;27.00;;;20.33;;
22201;SDS011;11266;51.522;6.302;2022-12-08T02:52:48;29.20;;;20.08;;
22201;SDS011;11266;51.522;6.302;2022-12-08T02:53:34;25.27;;;19.58;;
22201;SDS011;11266;51.522;6.302;2022-12-08T02:54:21;23.88;;;20.00;;
22201;SDS011;11266;51.522;6.302;2022-12-08T02:55:12;27.15;;;20.25;;
22201;SDS011;11266;51.522;6.302;2022-12-08T03:01:59;23.23;;;18.73;;
22201;SDS011;11266;51.522;6.302;2022-12-08T03:04:42;25.08;;;19.17;;
22201;SDS011;11266;51.522;6.302;2022-12-08T03:06:34;25.50;;;19.77;;
22201;SDS011;11266;51.522;6.302;2022-12-08T03:07:34;25.13;;;19.90;;
22201;SDS011;11266;51.522;6.302;2022-12-08T03:08:23;27.58;;;20.90;;
22201;SDS011;11266;51.522;6.302;2022-12-08T03:10:56;26.15;;;19.75;;
22201;SDS011;11266;51.522;6.302;2022-12-08T03:12:57;25.73;;;19.42;;
22201;SDS011;11266;51.522;6.302;2022-12-08T03:13:47;24.38;;;19.25;;
22201;SDS011;11266;51.522;6.302;2022-12-08T03:14:34;30.55;;;21.55;;
22201;SDS011;11266;51.522;6.302;2022-12-08T03:15:21;26.23;;;20.38;;
22201;SDS011;11266;51.522;6.302;2022-12-08T03:16:08;26.40;;;21.58;;
22201;SDS011;11266;51.522;6.302;2022-12-08T03:16:54;29.02;;;21.25;;
22201;SDS011;11266;51.522;6.302;2022-12-08T03:17:44;28.60;;;20.08;;
22201;SDS011;11266;51.522;6.302;2022-12-08T03:18:30;26.95;;;20.90;;
22201;SDS011;11266;51.522;6.302;2022-12-08T03:19:21;25.90;;;20.08;;
22201;SDS011;11266;51.522;6.302;2022-12-08T03:20:09;27.65;;;20.60;;
22201;SDS011;11266;51.522;6.302;2022-12-08T03:20:56;26.52;;;20.00;;
22201;SDS011;11266;51.522;6.302;2022-12-08T03:21:43;27.02;;;21.27;;
22201;SDS011;11266;51.522;6.302;2022-12-08T03:22:32;25.73;;;19.52;;
22201;SDS011;11266;51.522;6.302;2022-12-08T03:23:18;24.30;;;19.70;;
22201;SDS011;11266;51.522;6.302;2022-12-08T03:24:06;26.70;;;20.50;;
22201;SDS011;11266;51.522;6.302;2022-12-08T03:24:52;26.55;;;20.67;;
22201;SDS011;11266;51.522;6.302;2022-12-08T03:25:42;26.70;;;20.73;;
22201;SDS011;11266;51.522;6.302;2022-12-08T03:26:30;30.02;;;21.42;;
22201;SDS011;11266;51.522;6.302;2022-12-08T03:27:19;28.73;;;20.80;;
22201;SDS011;11266;51.522;6.302;2022-12-08T03:28:06;24.92;;;19.40;;
22201;SDS011;11266;51.522;6.302;2022-12-08T03:28:52;28.92;;;20.55;;
22201;SDS011;11266;51.522;6.302;2022-12-08T03:29:38;26.20;;;19.50;;
22201;SDS011;11266;51.522;6.302;2022-12-08T03:30:25;25.02;;;20.77;;
22201;SDS011;11266;51.522;6.302;2022-12-08T03:31:13;25.65;;;19.75;;
22201;SDS011;11266;51.522;6.302;2022-12-08T03:34:08;24.95;;;19.77;;
22201;SDS011;11266;51.522;6.302;2022-12-08T03:34:57;26.02;;;19.45;;
22201;SDS011;11266;51.522;6.302;2022-12-08T03:35:45;28.40;;;20.50;;
22201;SDS011;11266;51.522;6.302;2022-12-08T03:36:31;29.65;;;20.70;;
22201;SDS011;11266;51.522;6.302;2022-12-08T03:37:18;27.38;;;21.05;;
22201;SDS011;11266;51.522;6.302;2022-12-08T03:38:06;28.05;;;20.67;;
22201;SDS011;11266;51.522;6.302;2022-12-08T03:38:52;26.70;;;20.83;;
22201;SDS011;11266;51.522;6.302;2022-12-08T03:39:39;26.58;;;20.35;;
22201;SDS011;11266;51.522;6.302;2022-12-08T03:40:25;24.85;;;19.65;;
22201;SDS011;11266;51.522;6.302;2022-12-08T03:41:11;25.67;;;20.95;;
22201;SDS011;11266;51.522;6.302;2022-12-08T03:42:02;27.05;;;20.50;;
22201;SDS011;11266;51.522;6.302;2022-12-08T03:42:48;26.40;;;20.85;;
22201;SDS011;11266;51.522;6.302;2022-12-08T03:43:34;26.45;;;21.20;;
22201;SDS011;11266;51.522;6.302;2022-12-08T03:44:20;27.17;;;20.42;;
22201;SDS011;11266;51.522;6.302;2022-12-08T03:45:06;25.10;;;19.77;;
22201;SDS011;11266;51.522;6.302;2022-12-08T03:45:53;24.27;;;19.67;;
22201;SDS011;11266;51.522;6.302;2022-12-08T03:46:39;28.30;;;20.63;;
22201;SDS011;11266;51.522;6.302;2022-12-08T03:47:25;26.63;;;21.00;;
22201;SDS011;11266;51.522;6.302;2022-12-08T03:48:11;26.40;;;19.83;;
22201;SDS011;11266;51.522;6.302;2022-12-08T03:48:57;25.17;;;20.17;;
22201;SDS011;11266;51.522;6.302;2022-12-08T03:49:45;26.73;;;20.35;;
22201;SDS011;11266;51.522;6.302;2022-12-08T03:50:31;26.48;;;20.45;;
22201;SDS011;11266;51.522;6.302;2022-12-08T03:51:17;25.42;;;20.50;;
22201;SDS011;11266;51.522;6.302;2022-12-08T03:52:03;28.67;;;19.23;;
22201;SDS011;11266;51.522;6.302;2022-12-08T03:52:51;26.77;;;20.45;;
22201;SDS011;11266;51.522;6.302;2022-12-08T03:53:38;24.02;;;20.20;;
22201;SDS011;11266;51.522;6.302;2022-12-08T03:54:24;24.15;;;20.40;;
22201;SDS011;11266;51.522;6.302;2022-12-08T03:55:10;24.65;;;19.58;;
22201;SDS011;11266;51.522;6.302;2022-12-08T03:55:56;27.13;;;19.70;;
22201;SDS011;11266;51.522;6.302;2022-12-08T03:56:42;24.73;;;19.60;;
22201;SDS011;11266;51.522;6.302;2022-12-08T03:57:28;24.48;;;18.92;;
22201;SDS011;11266;51.522;6.302;2022-12-08T03:58:14;25.13;;;19.48;;
22201;SDS011;11266;51.522;6.302;2022-12-08T03:59:03;29.90;;;19.27;;
22201;SDS011;11266;51.522;6.302;2022-12-08T03:59:49;25.48;;;19.90;;
22201;SDS011;11266;51.522;6.302;2022-12-08T04:00:37;23.70;;;18.55;;
22201;SDS011;11266;51.522;6.302;2022-12-08T04:01:23;23.42;;;18.73;;
22201;SDS011;11266;51.522;6.302;2022-12-08T04:02:09;25.75;;;19.48;;
22201;SDS011;11266;51.522;6.302;2022-12-08T04:02:55;26.13;;;19.58;;
22201;SDS011;11266;51.522;6.302;2022-12-08T04:03:41;22.27;;;18.55;;
22201;SDS011;11266;51.522;6.302;2022-12-08T04:04:27;25.83;;;19.02;;
22201;SDS011;11266;51.522;6.302;2022-12-08T04:05:13;23.77;;;18.45;;
22201;SDS011;11266;51.522;6.302;2022-12-08T04:05:59;25.58;;;19.85;;
22201;SDS011;11266;51.522;6.302;2022-12-08T04:06:45;23.15;;;17.75;;
22201;SDS011;11266;51.522;6.302;2022-12-08T04:07:31;24.42;;;18.75;;
22201;SDS011;11266;51.522;6.302;2022-12-08T04:08:17;23.83;;;18.65;;
22201;SDS011;11266;51.522;6.302;2022-12-08T04:09:03;22.92;;;17.48;;
22201;SDS011;11266;51.522;6.302;2022-12-08T04:09:49;21.98;;;17.90;;
22201;SDS011;11266;51.522;6.302;2022-12-08T04:10:35;27.67;;;18.27;;
22201;SDS011;11266;51.522;6.302;2022-12-08T04:11:21;22.83;;;18.55;;
22201;SDS011;11266;51.522;6.302;2022-12-08T04:12:07;22.73;;;17.67;;
22201;SDS011;11266;51.522;6.302;2022-12-08T04:12:55;19.20;;;16.27;;
22201;SDS011;11266;51.522;6.302;2022-12-08T04:13:41;19.65;;;16.27;;
22201;SDS011;11266;51.522;6.302;2022-12-08T04:14:27;20.63;;;16.42;;
22201;SDS011;11266;51.522;6.302;2022-12-08T04:15:13;22.38;;;17.42;;
22201;SDS011;11266;51.522;6.302;2022-12-08T04:15:59;23.08;;;17.90;;
22201;SDS011;11266;51.522;6.302;2022-12-08T04:16:45;23.10;;;16.65;;
22201;SDS011;11266;51.522;6.302;2022-12-08T04:17:34;22.67;;;16.98;;
22201;SDS011;11266;51.522;6.302;2022-12-08T04:18:20;19.27;;;16.50;;
22201;SDS011;11266;51.522;6.302;2022-12-08T04:19:06;21.17;;;16.08;;
22201;SDS011;11266;51.522;6.302;2022-12-08T04:19:55;22.42;;;16.92;;
22201;SDS011;11266;51.522;6.302;2022-12-08T04:20:41;19.98;;;16.95;;
22201;SDS011;11266;51.522;6.302;2022-12-08T04:21:27;25.27;;;16.05;;
22201;SDS011;11266;51.522;6.302;2022-12-08T04:22:13;20.27;;;16.52;;
22201;SDS011;11266;51.522;6.302;2022-12-08T04:22:59;19.75;;;14.80;;
22201;SDS011;11266;51.522;6.302;2022-12-08T04:23:45;20.25;;;15.40;;
22201;SDS011;11266;51.522;6.302;2022-12-08T04:24:32;20.05;;;15.93;;
22201;SDS011;11266;51.522;6.302;2022-12-08T04:25:18;18.58;;;14.70;;
22201;SDS011;11266;51.522;6.302;2022-12-08T04:26:04;18.92;;;15.52;;
22201;SDS011;11266;51.522;6.302;2022-12-08T04:26:50;22.55;;;15.50;;
22201;SDS011;11266;51.522;6.302;2022-12-08T04:27:36;19.42;;;15.70;;
22201;SDS011;11266;51.522;6.302;2022-12-08T04:28:22;17.77;;;14.98;;
22201;SDS011;11266;51.522;6.302;2022-12-08T04:29:08;19.80;;;15.45;;
22201;SDS011;11266;51.522;6.302;2022-12-08T04:29:54;18.60;;;14.50;;
22201;SDS011;11266;51.522;6.302;2022-12-08T04:30:40;18.70;;;15.52;;
22201;SDS011;11266;51.522;6.302;2022-12-08T04:31:26;23.95;;;14.70;;
22201;SDS011;11266;51.522;6.302;2022-12-08T04:32:12;18.48;;;14.95;;
22201;SDS011;11266;51.522;6.302;2022-12-08T04:32:58;18.65;;;14.52;;
22201;SDS011;11266;51.522;6.302;2022-12-08T04:33:44;18.30;;;13.77;;
22201;SDS011;11266;51.522;6.302;2022-12-08T04:34:30;16.52;;;13.65;;
22201;SDS011;11266;51.522;6.302;2022-12-08T04:35:16;17.80;;;14.10;;
22201;SDS011;11266;51.522;6.302;2022-12-08T04:36:03;17.63;;;14.68;;
22201;SDS011;11266;51.522;6.302;2022-12-08T04:36:49;20.13;;;13.90;;
22201;SDS011;11266;51.522;6.302;2022-12-08T04:37:35;18.50;;;14.30;;
22201;SDS011;11266;51.522;6.302;2022-12-08T04:38:21;17.63;;;13.82;;
22201;SDS011;11266;51.522;6.302;2022-12-08T04:39:08;17.55;;;13.90;;
22201;SDS011;11266;51.522;6.302;2022-12-08T04:39:54;17.33;;;13.88;;
22201;SDS011;11266;51.522;6.302;2022-12-08T04:40:40;18.10;;;13.65;;
22201;SDS011;11266;51.522;6.302;2022-12-08T04:41:26;18.05;;;13.25;;
22201;SDS011;11266;51.522;6.302;2022-12-08T04:42:12;15.82;;;13.25;;
22201;SDS011;11266;51.522;6.302;2022-12-08T04:42:58;17.65;;;13.18;;
22201;SDS011;11266;51.522;6.302;2022-12-08T04:43:44;16.90;;;13.02;;
22201;SDS011;11266;51.522;6.302;2022-12-08T04:44:30;15.68;;;12.95;;
22201;SDS011;11266;51.522;6.302;2022-12-08T04:45:16;16.70;;;12.90;;
22201;SDS011;11266;51.522;6.302;2022-12-08T04:46:04;19.90;;;13.70;;
22201;SDS011;11266;51.522;6.302;2022-12-08T04:46:53;16.95;;;13.50;;
22201;SDS011;11266;51.522;6.302;2022-12-08T04:47:39;15.55;;;12.93;;
22201;SDS011;11266;51.522;6.302;2022-12-08T04:48:25;14.90;;;12.18;;
22201;SDS011;11266;51.522;6.302;2022-12-08T04:49:11;17.42;;;12.38;;
22201;SDS011;11266;51.522;6.302;2022-12-08T04:49:57;16.20;;;12.63;;
22201;SDS011;11266;51.522;6.302;2022-12-08T04:50:43;15.90;;;13.35;;
22201;SDS011;11266;51.522;6.302;2022-12-08T04:51:30;19.42;;;11.75;;
22201;SDS011;11266;51.522;6.302;2022-12-08T04:52:16;15.93;;;12.93;;
22201;SDS011;11266;51.522;6.302;2022-12-08T04:53:02;18.55;;;12.82;;
22201;SDS011;11266;51.522;6.302;2022-12-08T04:53:48;18.05;;;12.82;;
22201;SDS011;11266;51.522;6.302;2022-12-08T04:54:34;13.95;;;11.60;;
22201;SDS011;11266;51.522;6.302;2022-12-08T04:55:20;14.55;;;12.27;;
22201;SDS011;11266;51.522;6.302;2022-12-08T04:56:09;13.77;;;11.85;;
22201;SDS011;11266;51.522;6.302;2022-12-08T04:56:55;14.93;;;12.35;;
22201;SDS011;11266;51.522;6.302;2022-12-08T04:57:41;14.18;;;11.60;;
22201;SDS011;11266;51.522;6.302;2022-12-08T04:58:27;13.80;;;10.75;;
22201;SDS011;11266;51.522;6.302;2022-12-08T04:59:13;15.10;;;11.88;;
22201;SDS011;11266;51.522;6.302;2022-12-08T04:59:59;15.80;;;11.57;;
22201;SDS011;11266;51.522;6.302;2022-12-08T05:00:46;14.65;;;11.60;;
22201;SDS011;11266;51.522;6.302;2022-12-08T05:01:32;15.98;;;11.98;;
22201;SDS011;11266;51.522;6.302;2022-12-08T05:02:18;19.88;;;12.52;;
22201;SDS011;11266;51.522;6.302;2022-12-08T05:03:04;16.13;;;11.55;;
22201;SDS011;11266;51.522;6.302;2022-12-08T05:03:50;14.05;;;10.98;;
22201;SDS011;11266;51.522;6.302;2022-12-08T05:04:36;15.45;;;11.40;;
22201;SDS011;11266;51.522;6.302;2022-12-08T05:05:22;14.43;;;11.05;;
22201;SDS011;11266;51.522;6.302;2022-12-08T05:06:09;13.77;;;11.13;;
22201;SDS011;11266;51.522;6.302;2022-12-08T05:06:55;16.15;;;11.38;;
22201;SDS011;11266;51.522;6.302;2022-12-08T05:07:41;12.95;;;10.40;;
22201;SDS011;11266;51.522;6.302;2022-12-08T05:08:30;13.50;;;11.10;;
22201;SDS011;11266;51.522;6.302;2022-12-08T05:09:16;13.32;;;10.77;;
22201;SDS011;11266;51.522;6.302;2022-12-08T05:10:02;13.75;;;11.20;;
22201;SDS011;11266;51.522;6.302;2022-12-08T05:10:48;14.27;;;11.60;;
22201;SDS011;11266;51.522;6.302;2022-12-08T05:11:34;14.85;;;11.13;;
22201;SDS011;11266;51.522;6.302;2022-12-08T05:12:20;15.65;;;12.23;;
22201;SDS011;11266;51.522;6.302;2022-12-08T05:13:06;13.68;;;10.60;;
22201;SDS011;11266;51.522;6.302;2022-12-08T05:13:52;14.57;;;11.02;;
22201;SDS011;11266;51.522;6.302;2022-12-08T05:14:38;14.18;;;11.70;;
22201;SDS011;11266;51.522;6.302;2022-12-08T05:15:24;15.70;;;11.05;;
22201;SDS011;11266;51.522;6.302;2022-12-08T05:16:12;15.27;;;11.75;;
22201;SDS011;11266;51.522;6.302;2022-12-08T05:16:58;13.55;;;11.05;;
22201;SDS011;11266;51.522;6.302;2022-12-08T05:17:44;14.15;;;10.93;;
22201;SDS011;11266;51.522;6.302;2022-12-08T05:18:30;12.93;;;11.05;;
22201;SDS011;11266;51.522;6.302;2022-12-08T05:19:16;17.92;;;10.73;;
22201;SDS011;11266;51.522;6.302;2022-12-08T05:20:02;13.18;;;10.93;;